createdAt,value
2018-04-02T00:01:40.034Z,16.00
2018-04-02T00:04:07.551Z,16.00
2018-04-02T00:06:35.045Z,16.00
2018-04-02T00:09:02.540Z,16.00
2018-04-02T00:11:30.035Z,15.90
2018-04-02T00:13:57.568Z,15.90
2018-04-02T00:16:25.133Z,15.90
2018-04-02T00:18:52.596Z,15.90
2018-04-02T00:21:20.854Z,15.90
2018-04-02T00:23:48.438Z,15.80
2018-04-02T00:26:16.005Z,15.80
2018-04-02T00:28:43.505Z,15.80
2018-04-02T00:31:11.851Z,15.80
2018-04-02T00:33:39.358Z,15.80
2018-04-02T00:36:06.857Z,15.70
2018-04-02T00:38:34.447Z,15.70
2018-04-02T00:41:01.968Z,15.70
2018-04-02T00:43:29.472Z,15.70
2018-04-02T00:45:56.963Z,15.70
2018-04-02T00:48:25.219Z,15.60
2018-04-02T00:50:52.891Z,15.60
2018-04-02T00:53:20.380Z,15.60
2018-04-02T00:55:48.742Z,15.60
2018-04-02T00:58:16.236Z,15.60
2018-04-02T01:00:48.234Z,15.60
2018-04-02T01:03:16.043Z,15.60
2018-04-02T01:05:43.549Z,15.50
2018-04-02T01:08:11.078Z,15.50
2018-04-02T01:10:38.579Z,15.50
2018-04-02T01:13:06.098Z,15.50
2018-04-02T01:15:33.663Z,15.50
2018-04-02T01:18:01.234Z,15.50
2018-04-02T01:20:28.789Z,15.40
2018-04-02T01:22:56.377Z,15.50
2018-04-02T01:25:23.873Z,15.40
2018-04-02T01:27:51.395Z,15.40
2018-04-02T01:30:18.952Z,15.40
2018-04-02T01:32:46.452Z,15.40
2018-04-02T01:35:14.713Z,15.30
2018-04-02T01:37:42.224Z,15.30
2018-04-02T01:40:09.738Z,15.30
2018-04-02T01:42:37.238Z,15.30
2018-04-02T01:45:04.748Z,15.30
2018-04-02T01:47:32.321Z,15.30
2018-04-02T01:49:59.889Z,15.30
2018-04-02T01:52:27.454Z,15.30
2018-04-02T01:54:54.952Z,15.30
2018-04-02T01:57:23.210Z,15.20
2018-04-02T01:59:50.773Z,15.20
2018-04-02T02:02:18.277Z,15.20
2018-04-02T02:04:45.809Z,15.20
2018-04-02T02:07:13.294Z,15.20
2018-04-02T02:09:41.657Z,15.20
2018-04-02T02:12:09.225Z,15.20
2018-04-02T02:14:36.716Z,15.20
2018-04-02T02:17:04.244Z,15.10
2018-04-02T02:19:32.032Z,15.10
2018-04-02T02:22:00.092Z,15.10
2018-04-02T02:24:27.582Z,15.10
2018-04-02T02:26:55.846Z,15.10
2018-04-02T02:29:23.355Z,15.00
2018-04-02T02:31:50.860Z,15.00
2018-04-02T02:34:18.458Z,15.00
2018-04-02T02:36:46.816Z,15.00
2018-04-02T02:39:14.299Z,15.00
2018-04-02T02:41:42.659Z,15.00
2018-04-02T02:44:10.261Z,15.00
2018-04-02T02:46:38.528Z,14.90
2018-04-02T02:49:06.904Z,14.90
2018-04-02T02:51:34.403Z,14.90
2018-04-02T02:54:02.023Z,14.90
2018-04-02T02:56:29.532Z,14.90
2018-04-02T02:58:57.057Z,14.90
2018-04-02T03:01:24.564Z,14.90
2018-04-02T03:03:52.078Z,14.90
2018-04-02T03:06:19.646Z,14.90
2018-04-02T03:08:47.148Z,14.90
2018-04-02T03:11:14.651Z,14.80
2018-04-02T03:13:42.140Z,14.90
2018-04-02T03:16:09.627Z,14.80
2018-04-02T03:18:37.993Z,14.80
2018-04-02T03:21:05.490Z,14.80
2018-04-02T03:23:32.980Z,14.80
2018-04-02T03:26:00.476Z,14.70
2018-04-02T03:28:27.989Z,14.70
2018-04-02T03:30:55.507Z,14.70
2018-04-02T03:33:23.090Z,14.70
2018-04-02T03:35:50.650Z,14.70
2018-04-02T03:38:18.134Z,14.70
2018-04-02T03:40:46.481Z,14.70
2018-04-02T03:43:14.121Z,14.60
2018-04-02T03:45:41.718Z,14.60
2018-04-02T03:48:09.297Z,14.60
2018-04-02T03:50:36.780Z,14.60
2018-04-02T03:53:04.278Z,14.60
2018-04-02T03:55:31.923Z,14.60
2018-04-02T03:57:59.604Z,14.60
2018-04-02T04:00:27.120Z,14.50
2018-04-02T04:02:54.687Z,14.50
2018-04-02T04:05:22.212Z,14.50
2018-04-02T04:07:49.715Z,14.50
2018-04-02T04:10:17.212Z,14.50
2018-04-02T04:12:45.467Z,14.40
2018-04-02T04:15:12.966Z,14.40
2018-04-02T04:17:40.461Z,14.40
2018-04-02T04:20:08.056Z,14.40
2018-04-02T04:22:35.613Z,14.40
2018-04-02T04:25:03.107Z,14.40
2018-04-02T04:27:31.379Z,14.30
2018-04-02T04:29:58.921Z,14.30
2018-04-02T04:32:27.943Z,14.30
2018-04-02T04:34:56.212Z,14.30
2018-04-02T04:37:23.778Z,14.30
2018-04-02T04:39:51.271Z,14.30
2018-04-02T04:42:19.531Z,14.30
2018-04-02T04:44:47.035Z,14.30
2018-04-02T04:47:14.530Z,14.40
2018-04-02T04:49:42.113Z,14.40
2018-04-02T04:52:09.615Z,14.40
2018-04-02T04:54:37.871Z,14.50
2018-04-02T04:57:05.431Z,14.40
2018-04-02T04:59:32.935Z,14.50
2018-04-02T05:02:00.460Z,14.50
2018-04-02T05:04:27.976Z,14.50
2018-04-02T05:06:55.477Z,14.60
2018-04-02T05:09:22.998Z,14.60
2018-04-02T05:11:50.489Z,14.70
2018-04-02T05:14:17.993Z,14.70
2018-04-02T05:16:45.544Z,14.70
2018-04-02T05:19:13.039Z,14.80
2018-04-02T05:21:41.302Z,15.10
2018-04-02T05:24:09.668Z,15.30
2018-04-02T05:26:37.249Z,15.30
2018-04-02T05:29:04.805Z,15.40
2018-04-02T05:31:32.378Z,15.50
2018-04-02T05:33:59.943Z,15.60
2018-04-02T05:36:27.438Z,15.80
2018-04-02T05:38:54.922Z,15.90
2018-04-02T05:41:22.436Z,16.00
2018-04-02T05:43:49.923Z,16.10
2018-04-02T05:46:17.453Z,16.20
2018-04-02T05:48:45.030Z,16.20
2018-04-02T05:51:12.527Z,16.30
2018-04-02T05:53:40.018Z,16.40
2018-04-02T05:56:07.509Z,16.50
2018-04-02T05:58:35.074Z,16.50
2018-04-02T06:01:02.645Z,16.60
2018-04-02T06:03:30.161Z,16.60
2018-04-02T06:05:57.649Z,16.70
2018-04-02T06:08:25.132Z,16.70
2018-04-02T06:10:52.659Z,16.70
2018-04-02T06:13:20.160Z,16.70
2018-04-02T06:15:47.666Z,16.70
2018-04-02T06:18:15.173Z,16.70
2018-04-02T06:20:42.769Z,16.70
2018-04-02T06:23:10.295Z,16.60
2018-04-02T06:25:37.945Z,16.60
2018-04-02T06:28:05.547Z,16.60
2018-04-02T06:30:33.053Z,16.60
2018-04-02T06:33:01.319Z,16.70
2018-04-02T06:35:28.869Z,16.70
2018-04-02T06:37:56.422Z,16.80
2018-04-02T06:40:23.909Z,16.80
2018-04-02T06:42:52.174Z,17.00
2018-04-02T06:45:19.664Z,16.90
2018-04-02T06:47:48.076Z,17.10
2018-04-02T06:50:15.610Z,17.00
2018-04-02T06:52:43.116Z,17.10
2018-04-02T06:55:10.624Z,17.20
2018-04-02T06:57:38.155Z,17.20
2018-04-02T07:00:05.750Z,17.30
2018-04-02T07:02:33.326Z,17.40
2018-04-02T07:05:00.833Z,17.50
2018-04-02T07:07:28.348Z,17.50
2018-04-02T07:09:55.844Z,17.60
2018-04-02T07:12:24.127Z,17.70
2018-04-02T07:14:52.480Z,17.70
2018-04-02T07:17:20.752Z,17.80
2018-04-02T07:19:48.328Z,17.80
2018-04-02T07:22:15.837Z,17.90
2018-04-02T07:24:43.361Z,17.90
2018-04-02T07:27:11.615Z,18.00
2018-04-02T07:29:39.119Z,18.00
2018-04-02T07:32:07.375Z,18.00
2018-04-02T07:34:34.875Z,18.00
2018-04-02T07:37:03.255Z,18.00
2018-04-02T07:39:31.558Z,18.00
2018-04-02T07:41:59.080Z,18.00
2018-04-02T07:44:26.576Z,18.10
2018-04-02T07:46:54.935Z,18.10
2018-04-02T07:49:23.971Z,18.10
2018-04-02T07:51:51.455Z,18.10
2018-04-02T07:54:18.950Z,18.10
2018-04-02T07:56:46.469Z,18.10
2018-04-02T07:59:14.009Z,18.20
2018-04-02T08:01:42.279Z,18.30
2018-04-02T08:04:09.782Z,18.30
2018-04-02T08:06:37.307Z,18.40
2018-04-02T08:09:04.802Z,18.40
2018-04-02T08:11:32.295Z,18.40
2018-04-02T08:13:59.894Z,18.50
2018-04-02T08:16:27.393Z,18.50
2018-04-02T08:18:54.929Z,18.50
2018-04-02T08:21:22.508Z,18.50
2018-04-02T08:23:50.781Z,18.50
2018-04-02T08:26:18.349Z,18.50
2018-04-02T08:28:46.617Z,18.50
2018-04-02T08:31:14.114Z,18.50
2018-04-02T08:33:41.664Z,18.50
2018-04-02T08:36:10.044Z,18.40
2018-04-02T08:38:38.349Z,18.40
2018-04-02T08:41:06.598Z,18.30
2018-04-02T08:43:34.112Z,18.30
2018-04-02T08:46:01.647Z,18.20
2018-04-02T08:48:29.889Z,18.20
2018-04-02T08:50:57.478Z,18.20
2018-04-02T08:53:24.988Z,18.20
2018-04-02T08:55:52.516Z,18.20
2018-04-02T08:58:20.052Z,18.20
2018-04-02T09:00:47.643Z,18.20
2018-04-02T09:03:15.206Z,18.30
2018-04-02T09:05:42.700Z,18.20
2018-04-02T09:08:10.191Z,18.20
2018-04-02T09:10:37.790Z,18.30
2018-04-02T09:13:05.289Z,18.30
2018-04-02T09:15:33.572Z,18.40
2018-04-02T09:18:01.917Z,18.40
2018-04-02T09:20:29.512Z,18.40
2018-04-02T09:22:57.771Z,18.40
2018-04-02T09:25:25.287Z,18.40
2018-04-02T09:27:52.827Z,18.40
2018-04-02T09:30:21.177Z,18.50
2018-04-02T09:32:49.446Z,18.60
2018-04-02T09:35:16.952Z,18.60
2018-04-02T09:37:45.325Z,18.60
2018-04-02T09:40:13.092Z,18.60
2018-04-02T09:42:40.590Z,18.70
2018-04-02T09:45:08.101Z,18.70
2018-04-02T09:47:35.636Z,18.70
2018-04-02T09:50:03.139Z,18.80
2018-04-02T09:52:30.635Z,18.90
2018-04-02T09:54:59.008Z,19.00
2018-04-02T09:57:27.384Z,19.00
2018-04-02T09:59:55.649Z,19.10
2018-04-02T10:02:23.174Z,19.00
2018-04-02T10:04:50.755Z,19.00
2018-04-02T10:07:18.270Z,19.00
2018-04-02T10:09:46.648Z,19.10
2018-04-02T10:12:14.914Z,19.10
2018-04-02T10:14:42.489Z,19.10
2018-04-02T10:17:09.985Z,19.10
2018-04-02T10:19:37.490Z,19.10
2018-04-02T10:22:05.009Z,19.10
2018-04-02T10:24:33.274Z,19.10
2018-04-02T10:27:01.544Z,19.10
2018-04-02T10:29:29.052Z,19.10
2018-04-02T10:31:56.580Z,19.00
2018-04-02T10:34:24.150Z,19.00
2018-04-02T10:36:51.693Z,19.00
2018-04-02T10:39:19.265Z,18.90
2018-04-02T10:41:46.774Z,18.90
2018-04-02T10:44:14.282Z,18.90
2018-04-02T10:46:41.869Z,18.80
2018-04-02T10:49:09.452Z,18.80
2018-04-02T10:51:37.739Z,18.90
2018-04-02T10:54:05.994Z,18.90
2018-04-02T10:56:33.564Z,18.90
2018-04-02T10:59:01.122Z,18.90
2018-04-02T11:01:28.686Z,18.90
2018-04-02T11:03:56.188Z,18.90
2018-04-02T11:06:23.712Z,18.90
2018-04-02T11:08:52.195Z,18.90
2018-04-02T11:11:19.697Z,18.80
2018-04-02T11:13:47.960Z,18.80
2018-04-02T11:16:15.450Z,18.80
2018-04-02T11:18:42.988Z,18.80
2018-04-02T11:21:10.495Z,18.80
2018-04-02T11:23:37.997Z,18.80
2018-04-02T11:26:05.520Z,18.80
2018-04-02T11:28:33.056Z,18.70
2018-04-02T11:31:01.331Z,18.50
2018-04-02T11:33:28.848Z,18.50
2018-04-02T11:35:56.355Z,18.50
2018-04-02T11:38:24.639Z,18.50
2018-04-02T11:40:52.197Z,18.50
2018-04-02T11:43:19.692Z,18.50
2018-04-02T11:45:48.055Z,18.40
2018-04-02T11:48:15.608Z,18.40
2018-04-02T11:50:43.177Z,18.40
2018-04-02T11:53:10.716Z,18.40
2018-04-02T11:55:38.212Z,18.30
2018-04-02T11:58:06.514Z,18.10
2018-04-02T12:00:34.775Z,17.90
2018-04-02T12:03:02.287Z,17.90
2018-04-02T12:05:29.804Z,17.80
2018-04-02T12:07:57.303Z,17.80
2018-04-02T12:10:24.787Z,17.70
2018-04-02T12:12:53.461Z,17.70
2018-04-02T12:15:20.955Z,17.60
2018-04-02T12:17:48.468Z,17.60
2018-04-02T12:20:15.956Z,17.70
2018-04-02T12:22:43.467Z,17.80
2018-04-02T12:25:11.041Z,17.90
2018-04-02T12:27:38.576Z,18.00
2018-04-02T12:30:06.081Z,18.10
2018-04-02T12:32:34.347Z,18.30
2018-04-02T12:35:01.932Z,18.30
2018-04-02T12:37:29.431Z,18.40
2018-04-02T12:39:56.928Z,18.40
2018-04-02T12:42:24.416Z,18.50
2018-04-02T12:44:51.980Z,18.60
2018-04-02T12:47:19.489Z,18.70
2018-04-02T12:49:47.005Z,18.80
2018-04-02T12:52:14.491Z,18.80
2018-04-02T12:54:42.867Z,19.00
2018-04-02T12:57:10.392Z,19.00
2018-04-02T12:59:37.896Z,19.10
2018-04-02T13:02:06.266Z,19.10
2018-04-02T13:04:33.844Z,19.10
2018-04-02T13:07:02.208Z,19.20
2018-04-02T13:09:29.717Z,19.20
2018-04-02T13:11:57.239Z,19.20
2018-04-02T13:14:24.995Z,19.20
2018-04-02T13:16:52.484Z,19.20
2018-04-02T13:19:19.986Z,19.20
2018-04-02T13:21:47.492Z,19.20
2018-04-02T13:24:14.992Z,19.20
2018-04-02T13:26:43.360Z,19.30
2018-04-02T13:29:10.876Z,19.30
2018-04-02T13:31:38.412Z,19.40
2018-04-02T13:34:05.946Z,19.40
2018-04-02T13:36:33.534Z,19.40
2018-04-02T13:39:01.801Z,19.50
2018-04-02T13:41:29.298Z,19.40
2018-04-02T13:43:56.819Z,19.50
2018-04-02T13:46:26.022Z,19.50
2018-04-02T13:48:53.517Z,19.40
2018-04-02T13:51:21.887Z,19.50
2018-04-02T13:53:49.447Z,19.50
2018-04-02T13:56:16.934Z,19.60
2018-04-02T13:58:45.288Z,19.60
2018-04-02T14:01:12.849Z,19.60
2018-04-02T14:03:40.419Z,19.60
2018-04-02T14:06:07.928Z,19.70
2018-04-02T14:08:35.436Z,19.60
2018-04-02T14:11:03.053Z,19.70
2018-04-02T14:13:30.542Z,19.70
2018-04-02T14:15:58.045Z,19.80
2018-04-02T14:18:25.624Z,19.80
2018-04-02T14:20:53.144Z,19.80
2018-04-02T14:23:20.743Z,19.90
2018-04-02T14:25:48.312Z,19.80
2018-04-02T14:28:15.874Z,19.80
2018-04-02T14:30:43.463Z,19.80
2018-04-02T14:33:11.736Z,19.80
2018-04-02T14:35:40.020Z,19.80
2018-04-02T14:38:08.299Z,19.80
2018-04-02T14:40:36.573Z,19.70
2018-04-02T14:43:04.064Z,19.70
2018-04-02T14:45:31.562Z,19.70
2018-04-02T14:47:59.082Z,19.70
2018-04-02T14:50:27.356Z,19.80
2018-04-02T14:52:54.852Z,19.80
2018-04-02T14:55:22.387Z,19.80
2018-04-02T14:57:49.928Z,19.80
2018-04-02T15:00:18.227Z,19.80
2018-04-02T15:02:45.727Z,19.80
2018-04-02T15:05:13.230Z,19.80
2018-04-02T15:07:40.736Z,19.80
2018-04-02T15:10:08.996Z,19.70
2018-04-02T15:12:36.588Z,19.70
2018-04-02T15:15:05.040Z,19.80
2018-04-02T15:17:32.547Z,19.70
2018-04-02T15:20:00.791Z,19.60
2018-04-02T15:22:28.284Z,19.60
2018-04-02T15:24:56.644Z,19.50
2018-04-02T15:27:24.206Z,19.50
2018-04-02T15:29:52.501Z,19.50
2018-04-02T15:32:20.811Z,19.50
2018-04-02T15:34:48.294Z,19.50
2018-04-02T15:37:15.805Z,19.50
2018-04-02T15:39:43.364Z,19.60
2018-04-02T15:42:10.900Z,19.60
2018-04-02T15:44:38.413Z,19.50
2018-04-02T15:47:06.689Z,19.50
2018-04-02T15:49:35.219Z,19.50
2018-04-02T15:52:02.722Z,19.50
2018-04-02T15:54:31.986Z,19.50
2018-04-02T15:56:59.513Z,19.50
2018-04-02T15:59:27.894Z,19.50
2018-04-02T16:01:55.421Z,19.50
2018-04-02T16:04:23.013Z,19.50
2018-04-02T16:06:50.586Z,19.50
2018-04-02T16:09:18.076Z,19.60
2018-04-02T16:11:45.603Z,19.50
2018-04-02T16:14:13.171Z,19.50
2018-04-02T16:16:40.673Z,19.60
2018-04-02T16:19:08.166Z,19.60
2018-04-02T16:21:35.771Z,19.60
2018-04-02T16:24:03.268Z,19.60
2018-04-02T16:26:30.782Z,19.60
2018-04-02T16:28:58.372Z,19.60
2018-04-02T16:31:25.939Z,19.60
2018-04-02T16:33:53.498Z,19.60
2018-04-02T16:36:21.035Z,19.60
2018-04-02T16:38:48.618Z,19.60
2018-04-02T16:41:16.122Z,19.60
2018-04-02T16:43:43.620Z,19.50
2018-04-02T16:46:11.122Z,19.60
2018-04-02T16:48:38.633Z,19.60
2018-04-02T16:51:06.141Z,19.60
2018-04-02T16:53:33.636Z,19.60
2018-04-02T16:56:01.912Z,19.60
2018-04-02T16:58:30.201Z,19.60
2018-04-02T17:00:58.465Z,19.60
2018-04-02T17:03:25.970Z,19.60
2018-04-02T17:05:53.477Z,19.50
2018-04-02T17:08:21.072Z,19.50
2018-04-02T17:10:49.363Z,19.50
2018-04-02T17:13:17.620Z,19.50
2018-04-02T17:15:45.129Z,19.50
2018-04-02T17:18:12.627Z,19.50
2018-04-02T17:20:40.228Z,19.60
2018-04-02T17:23:08.591Z,19.50
2018-04-02T17:25:36.106Z,19.50
2018-04-02T17:28:03.661Z,19.50
2018-04-02T17:30:31.181Z,19.50
2018-04-02T17:32:58.721Z,19.50
2018-04-02T17:35:26.247Z,19.50
2018-04-02T17:37:54.608Z,19.40
2018-04-02T17:40:22.206Z,19.40
2018-04-02T17:42:50.463Z,19.40
2018-04-02T17:45:17.965Z,19.30
2018-04-02T17:47:45.588Z,19.40
2018-04-02T17:50:13.857Z,19.30
2018-04-02T17:52:41.443Z,19.30
2018-04-02T17:55:09.057Z,19.30
2018-04-02T17:57:37.288Z,19.30
2018-04-02T18:00:06.518Z,19.30
2018-04-02T18:02:34.012Z,19.30
2018-04-02T18:05:01.499Z,19.20
2018-04-02T18:07:29.021Z,19.20
2018-04-02T18:09:56.539Z,19.20
2018-04-02T18:12:24.053Z,19.20
2018-04-02T18:14:51.581Z,19.20
2018-04-02T18:17:19.856Z,19.30
2018-04-02T18:19:47.483Z,19.20
2018-04-02T18:22:15.813Z,19.30
2018-04-02T18:24:43.348Z,19.30
2018-04-02T18:27:10.939Z,19.20
2018-04-02T18:29:38.511Z,19.20
2018-04-02T18:32:06.899Z,19.30
2018-04-02T18:34:35.248Z,19.30
2018-04-02T18:37:02.821Z,19.30
2018-04-02T18:39:30.338Z,19.30
2018-04-02T18:41:57.829Z,19.30
2018-04-02T18:44:25.382Z,19.30
2018-04-02T18:46:52.881Z,19.30
2018-04-02T18:49:20.464Z,19.30
2018-04-02T18:51:48.047Z,19.30
2018-04-02T18:54:16.408Z,19.30
2018-04-02T18:56:44.117Z,19.30
2018-04-02T18:59:11.647Z,19.30
2018-04-02T19:01:39.180Z,19.30
2018-04-02T19:04:06.797Z,19.30
2018-04-02T19:06:35.195Z,19.20
2018-04-02T19:09:02.692Z,19.20
2018-04-02T19:11:30.231Z,19.20
2018-04-02T19:13:57.784Z,19.20
2018-04-02T19:16:25.392Z,19.30
2018-04-02T19:18:53.012Z,19.30
2018-04-02T19:21:21.339Z,19.20
2018-04-02T19:23:48.853Z,19.20
2018-04-02T19:26:17.213Z,19.10
2018-04-02T19:28:44.737Z,19.10
2018-04-02T19:31:12.394Z,19.10
2018-04-02T19:33:39.998Z,19.00
2018-04-02T19:36:07.602Z,19.10
2018-04-02T19:38:36.019Z,19.00
2018-04-02T19:41:03.574Z,19.00
2018-04-02T19:43:31.210Z,19.00
2018-04-02T19:45:59.548Z,19.00
2018-04-02T19:48:27.097Z,19.00
2018-04-02T19:50:54.662Z,18.90
2018-04-02T19:53:22.228Z,18.90
2018-04-02T19:55:49.772Z,18.90
2018-04-02T19:58:18.058Z,18.70
2018-04-02T20:00:46.355Z,18.70
2018-04-02T20:03:14.003Z,18.60
2018-04-02T20:05:42.307Z,18.60
2018-04-02T20:08:09.852Z,18.60
2018-04-02T20:10:38.138Z,18.50
2018-04-02T20:13:06.413Z,18.50
2018-04-02T20:15:34.714Z,18.40
2018-04-02T20:18:02.228Z,18.40
2018-04-02T20:20:29.837Z,18.40
2018-04-02T20:22:57.380Z,18.30
2018-04-02T20:25:24.886Z,18.30
2018-04-02T20:27:53.502Z,18.30
2018-04-02T20:30:21.072Z,18.20
2018-04-02T20:32:48.675Z,18.20
2018-04-02T20:35:17.058Z,18.10
2018-04-02T20:37:45.342Z,18.10
2018-04-02T20:40:13.713Z,18.10
2018-04-02T20:42:41.992Z,18.10
2018-04-02T20:45:09.491Z,18.00
2018-04-02T20:47:37.000Z,18.00
2018-04-02T20:50:04.573Z,18.00
2018-04-02T20:52:32.102Z,18.00
2018-04-02T20:54:59.724Z,18.00
2018-04-02T20:57:27.289Z,17.90
2018-04-02T20:59:54.795Z,17.90
2018-04-02T21:02:22.306Z,17.90
2018-04-02T21:04:49.857Z,17.90
2018-04-02T21:07:17.363Z,17.90
2018-04-02T21:09:45.730Z,17.80
2018-04-02T21:12:13.248Z,17.80
2018-04-02T21:14:40.861Z,17.80
2018-04-02T21:17:08.446Z,17.80
2018-04-02T21:19:36.823Z,17.70
2018-04-02T21:22:05.183Z,17.70
2018-04-02T21:24:32.753Z,17.70
2018-04-02T21:27:00.315Z,17.70
2018-04-02T21:29:27.876Z,17.70
2018-04-02T21:31:55.400Z,17.70
2018-04-02T21:34:22.884Z,17.70
2018-04-02T21:36:50.382Z,17.70
2018-04-02T21:39:17.943Z,17.60
2018-04-02T21:41:45.463Z,17.60
2018-04-02T21:44:12.974Z,17.60
2018-04-02T21:46:40.477Z,17.60
2018-04-02T21:49:08.010Z,17.60
2018-04-02T21:51:35.505Z,17.60
2018-04-02T21:54:03.012Z,17.60
2018-04-02T21:56:30.553Z,17.60
2018-04-02T21:58:58.058Z,17.50
2018-04-02T22:01:25.740Z,17.50
2018-04-02T22:03:53.243Z,17.50
2018-04-02T22:06:32.493Z,17.50
2018-04-02T22:08:59.987Z,17.50
2018-04-02T22:11:28.384Z,17.50
2018-04-02T22:13:55.883Z,17.50
2018-04-02T22:16:23.436Z,17.50
2018-04-02T22:18:51.702Z,17.40
2018-04-02T22:21:20.047Z,17.50
2018-04-02T22:23:47.636Z,17.40
2018-04-02T22:26:15.137Z,17.40
2018-04-02T22:28:42.651Z,17.40
2018-04-02T22:31:10.286Z,17.40
2018-04-02T22:33:37.798Z,17.40
2018-04-02T22:36:05.313Z,17.40
2018-04-02T22:38:32.796Z,17.40
2018-04-02T22:41:00.303Z,17.40
2018-04-02T22:43:30.313Z,17.40
2018-04-02T22:45:57.873Z,17.40
2018-04-02T22:48:26.163Z,17.40
2018-04-02T22:50:54.424Z,17.40
2018-04-02T22:53:22.003Z,17.40
2018-04-02T22:55:49.512Z,17.40
2018-04-02T22:58:17.013Z,17.30
2018-04-02T23:00:44.537Z,17.30
2018-04-02T23:03:12.036Z,17.30
2018-04-02T23:05:39.620Z,17.30
2018-04-02T23:08:07.112Z,17.30
2018-04-02T23:10:35.477Z,17.30
2018-04-02T23:13:02.987Z,17.30
2018-04-02T23:15:30.494Z,17.30
2018-04-02T23:17:57.995Z,17.30
2018-04-02T23:20:26.261Z,17.20
2018-04-02T23:22:53.818Z,17.20
2018-04-02T23:25:21.380Z,17.20
2018-04-02T23:27:48.873Z,17.20
2018-04-02T23:30:17.235Z,17.20
2018-04-02T23:32:44.787Z,17.20
2018-04-02T23:35:12.296Z,17.20
2018-04-02T23:37:39.787Z,17.20
2018-04-02T23:40:09.948Z,17.10
2018-04-02T23:42:37.452Z,17.10
2018-04-02T23:45:04.957Z,17.10
2018-04-02T23:47:32.560Z,17.10
2018-04-02T23:50:00.922Z,17.10
2018-04-02T23:52:29.931Z,17.00
2018-04-02T23:54:58.182Z,17.00
2018-04-02T23:57:25.785Z,17.00
2018-04-02T23:59:53.262Z,17.00
